createdAt,value
2018-07-05T00:02:06.265Z,2.20
2018-07-05T00:04:51.768Z,2.27
2018-07-05T00:07:37.223Z,2.13
2018-07-05T00:10:22.706Z,2.17
2018-07-05T00:13:08.232Z,2.43
2018-07-05T00:15:47.821Z,2.13
2018-07-05T00:18:33.436Z,2.63
2018-07-05T00:21:18.926Z,2.30
2018-07-05T00:23:58.611Z,2.53
2018-07-05T00:26:44.408Z,2.20
2018-07-05T00:29:30.149Z,2.47
2018-07-05T00:32:09.741Z,2.30
2018-07-05T00:34:55.337Z,2.40
2018-07-05T00:37:40.647Z,2.17
2018-07-05T00:40:25.866Z,2.03
2018-07-05T00:43:11.339Z,2.33
2018-07-05T00:45:56.945Z,2.47
2018-07-05T00:48:42.448Z,2.20
2018-07-05T00:51:28.065Z,2.17
2018-07-05T00:54:07.583Z,2.00
2018-07-05T00:56:52.926Z,2.33
2018-07-05T00:59:38.456Z,2.90
2018-07-05T01:02:24.047Z,2.60
2018-07-05T01:05:04.007Z,2.43
2018-07-05T01:07:49.571Z,2.87
2018-07-05T01:10:29.321Z,2.57
2018-07-05T01:13:14.904Z,2.67
2018-07-05T01:16:00.313Z,2.77
2018-07-05T01:18:45.844Z,2.60
2018-07-05T01:21:31.327Z,2.73
2018-07-05T01:24:16.893Z,2.93
2018-07-05T01:27:02.482Z,2.67
2018-07-05T01:29:48.268Z,2.80
2018-07-05T01:32:33.735Z,2.60
2018-07-05T01:35:19.150Z,2.70
2018-07-05T01:37:58.669Z,2.90
2018-07-05T01:40:44.115Z,2.83
2018-07-05T01:43:29.585Z,2.60
2018-07-05T01:46:15.012Z,3.00
2018-07-05T01:49:00.367Z,3.00
2018-07-05T01:51:45.861Z,2.97
2018-07-05T01:54:31.203Z,3.30
2018-07-05T01:57:16.862Z,3.20
2018-07-05T01:59:56.399Z,3.53
2018-07-05T02:02:42.028Z,3.37
2018-07-05T02:05:27.642Z,2.97
2018-07-05T02:08:13.000Z,3.27
2018-07-05T02:10:58.533Z,3.60
2018-07-05T02:13:44.431Z,3.13
2018-07-05T02:16:29.874Z,3.30
2018-07-05T02:19:15.536Z,2.80
2018-07-05T02:22:01.000Z,3.13
2018-07-05T02:24:40.538Z,3.47
2018-07-05T02:27:25.935Z,3.90
2018-07-05T02:30:11.455Z,3.43
2018-07-05T02:32:51.013Z,3.33
2018-07-05T02:35:36.560Z,3.93
2018-07-05T02:38:22.316Z,3.90
2018-07-05T02:41:07.754Z,3.73
2018-07-05T02:43:53.252Z,3.90
2018-07-05T02:46:38.648Z,3.43
2018-07-05T02:49:24.195Z,4.20
2018-07-05T02:52:09.768Z,4.30
2018-07-05T02:54:55.217Z,4.53
2018-07-05T02:57:40.705Z,4.03
2018-07-05T03:00:26.183Z,3.63
2018-07-05T03:03:11.682Z,4.00
2018-07-05T03:05:57.012Z,4.30
2018-07-05T03:08:42.743Z,3.70
2018-07-05T03:11:28.311Z,4.03
2018-07-05T03:14:14.108Z,4.63
2018-07-05T03:16:53.897Z,4.57
2018-07-05T03:19:39.485Z,4.23
2018-07-05T03:22:25.046Z,4.07
2018-07-05T03:25:04.568Z,3.90
2018-07-05T03:27:50.063Z,4.07
2018-07-05T03:30:29.572Z,4.73
2018-07-05T03:33:14.913Z,4.83
2018-07-05T03:36:00.370Z,4.73
2018-07-05T03:38:46.209Z,4.87
2018-07-05T03:41:31.782Z,4.73
2018-07-05T03:44:17.282Z,4.20
2018-07-05T03:47:02.650Z,4.53
2018-07-05T03:49:47.997Z,4.37
2018-07-05T03:52:33.501Z,5.00
2018-07-05T03:55:18.735Z,4.77
2018-07-05T03:58:04.220Z,4.90
2018-07-05T04:00:44.052Z,5.90
2018-07-05T04:03:23.815Z,4.97
2018-07-05T04:06:09.288Z,4.93
2018-07-05T04:08:48.863Z,5.67
2018-07-05T04:11:34.249Z,5.13
2018-07-05T04:14:19.629Z,4.97
2018-07-05T04:17:04.962Z,4.70
2018-07-05T04:19:51.327Z,5.10
2018-07-05T04:22:36.590Z,5.23
2018-07-05T04:25:22.330Z,5.03
2018-07-05T04:28:07.687Z,4.80
2018-07-05T04:30:53.471Z,5.23
2018-07-05T04:33:38.937Z,5.13
2018-07-05T04:36:24.384Z,4.93
2018-07-05T04:39:09.855Z,5.10
2018-07-05T04:41:55.277Z,5.07
2018-07-05T04:44:40.657Z,4.90
2018-07-05T04:47:25.824Z,5.60
2018-07-05T04:50:11.073Z,5.53
2018-07-05T04:52:56.442Z,5.63
2018-07-05T04:55:42.000Z,5.07
2018-07-05T04:58:27.443Z,5.30
2018-07-05T05:01:12.927Z,5.50
2018-07-05T05:03:58.360Z,5.63
2018-07-05T05:06:43.753Z,5.57
2018-07-05T05:09:29.121Z,5.50
2018-07-05T05:12:14.451Z,6.40
2018-07-05T05:15:02.855Z,6.37
2018-07-05T05:17:48.365Z,6.63
2018-07-05T05:20:33.837Z,6.23
2018-07-05T05:23:19.190Z,7.47
2018-07-05T05:26:04.519Z,8.00
2018-07-05T05:28:44.209Z,6.47
2018-07-05T05:31:29.630Z,7.97
2018-07-05T05:34:15.015Z,8.77
2018-07-05T05:37:00.554Z,8.60
2018-07-05T05:39:46.363Z,8.73
2018-07-05T05:42:31.735Z,11.00
2018-07-05T05:45:17.573Z,11.43
2018-07-05T05:48:03.533Z,12.13
2018-07-05T05:50:49.223Z,11.37
2018-07-05T05:53:34.871Z,9.10
2018-07-05T05:56:20.404Z,8.33
2018-07-05T05:59:10.254Z,7.67
2018-07-05T06:01:56.092Z,6.90
2018-07-05T06:04:41.796Z,6.70
2018-07-05T06:07:28.248Z,6.70
2018-07-05T06:10:14.991Z,6.53
2018-07-05T06:13:00.634Z,7.83
2018-07-05T06:15:46.249Z,7.10
2018-07-05T06:18:25.872Z,6.77
2018-07-05T06:21:05.628Z,6.90
2018-07-05T06:23:51.134Z,7.30
2018-07-05T06:26:36.577Z,7.00
2018-07-05T06:29:21.916Z,6.83
2018-07-05T06:32:07.761Z,7.87
2018-07-05T06:34:47.592Z,7.40
2018-07-05T06:37:33.101Z,8.67
2018-07-05T06:40:18.767Z,8.50
2018-07-05T06:43:04.439Z,7.93
2018-07-05T06:45:50.213Z,9.43
2018-07-05T06:48:35.668Z,9.60
2018-07-05T06:51:21.297Z,8.60
2018-07-05T06:54:07.133Z,8.57
2018-07-05T06:56:52.576Z,8.80
2018-07-05T06:59:32.198Z,8.77
2018-07-05T07:02:17.852Z,8.97
2018-07-05T07:05:03.199Z,9.13
2018-07-05T07:07:48.494Z,9.03
2018-07-05T07:10:34.196Z,9.13
2018-07-05T07:13:19.470Z,9.63
2018-07-05T07:16:05.060Z,9.53
2018-07-05T07:18:50.452Z,8.70
2018-07-05T07:21:36.154Z,7.77
2018-07-05T07:24:21.533Z,7.33
2018-07-05T07:27:07.037Z,9.60
2018-07-05T07:29:52.820Z,9.17
2018-07-05T07:32:32.514Z,10.40
2018-07-05T07:35:17.904Z,10.00
2018-07-05T07:38:03.235Z,10.80
2018-07-05T07:40:48.805Z,9.67
2018-07-05T07:43:16.120Z,9.10
2018-07-05T07:45:42.910Z,11.43
2018-07-05T07:48:09.800Z,12.00
2018-07-05T07:50:36.456Z,10.00
2018-07-05T07:53:03.326Z,11.43
2018-07-05T07:55:30.457Z,12.67
2018-07-05T07:57:58.104Z,12.37
2018-07-05T08:00:28.323Z,13.00
2018-07-05T08:02:55.019Z,14.23
2018-07-05T08:05:22.289Z,13.93
2018-07-05T08:07:49.163Z,13.83
2018-07-05T08:10:15.877Z,10.80
2018-07-05T08:12:42.488Z,12.23
2018-07-05T08:15:09.243Z,11.20
2018-07-05T08:17:35.837Z,12.03
2018-07-05T08:20:02.740Z,11.20
2018-07-05T08:22:29.598Z,9.47
2018-07-05T08:24:56.346Z,10.73
2018-07-05T08:27:22.990Z,13.87
2018-07-05T08:29:49.809Z,13.10
2018-07-05T08:32:16.689Z,12.17
2018-07-05T08:34:43.367Z,10.60
2018-07-05T08:37:10.253Z,10.77
2018-07-05T08:39:38.322Z,12.30
2018-07-05T08:42:05.509Z,12.40
2018-07-05T08:44:32.534Z,11.63
2018-07-05T08:46:59.209Z,10.10
2018-07-05T08:49:25.852Z,10.47
2018-07-05T08:51:55.385Z,11.27
2018-07-05T08:54:23.603Z,10.33
2018-07-05T08:56:50.700Z,10.50
2018-07-05T08:59:17.695Z,10.53
2018-07-05T09:01:44.408Z,9.13
2018-07-05T09:04:11.126Z,8.50
2018-07-05T09:06:38.043Z,11.50
2018-07-05T09:09:05.710Z,11.50
2018-07-05T09:11:34.125Z,12.23
2018-07-05T09:14:00.871Z,13.10
2018-07-05T09:16:27.515Z,12.83
2018-07-05T09:18:54.300Z,10.97
2018-07-05T09:21:21.517Z,10.73
2018-07-05T09:23:48.885Z,9.73
2018-07-05T09:26:15.400Z,9.27
2018-07-05T09:28:42.107Z,10.60
2018-07-05T09:31:08.812Z,9.63
2018-07-05T09:33:35.543Z,11.03
2018-07-05T09:36:02.151Z,9.37
2018-07-05T09:38:28.932Z,7.87
2018-07-05T09:40:55.525Z,7.30
2018-07-05T09:43:22.277Z,6.77
2018-07-05T09:45:49.028Z,7.03
2018-07-05T09:48:15.653Z,6.60
2018-07-05T09:50:42.327Z,5.17
2018-07-05T09:53:09.037Z,5.90
2018-07-05T09:55:35.679Z,5.70
2018-07-05T09:58:02.423Z,5.77
2018-07-05T10:00:34.736Z,6.93
2018-07-05T10:03:01.872Z,6.63
2018-07-05T10:05:28.632Z,7.40
2018-07-05T10:07:55.341Z,7.37
2018-07-05T10:10:22.001Z,5.60
2018-07-05T10:12:48.790Z,5.70
2018-07-05T10:15:15.437Z,6.03
2018-07-05T10:17:42.180Z,6.27
2018-07-05T10:20:08.800Z,5.80
2018-07-05T10:22:35.695Z,6.37
2018-07-05T10:25:02.379Z,5.50
2018-07-05T10:27:29.276Z,6.40
2018-07-05T10:30:14.788Z,6.50
2018-07-05T10:33:00.742Z,5.57
2018-07-05T10:35:27.907Z,6.00
2018-07-05T10:37:58.332Z,5.03
2018-07-05T10:40:39.287Z,5.90
2018-07-05T10:43:24.752Z,5.77
2018-07-05T10:46:10.224Z,5.23
2018-07-05T10:48:55.887Z,5.70
2018-07-05T10:51:41.301Z,5.27
2018-07-05T10:54:26.900Z,5.10
2018-07-05T10:57:12.261Z,5.17
2018-07-05T10:59:57.830Z,5.10
2018-07-05T11:02:43.239Z,4.17
2018-07-05T11:05:28.901Z,4.13
2018-07-05T11:08:14.513Z,5.30
2018-07-05T11:11:00.139Z,5.87
2018-07-05T11:13:46.344Z,5.00
2018-07-05T11:16:31.948Z,4.30
2018-07-05T11:19:17.366Z,4.67
2018-07-05T11:22:03.021Z,5.07
2018-07-05T11:24:48.409Z,5.70
2018-07-05T11:27:34.008Z,3.37
2018-07-05T11:30:19.488Z,3.90
2018-07-05T11:33:05.079Z,3.10
2018-07-05T11:35:44.809Z,4.20
2018-07-05T11:38:30.403Z,3.60
2018-07-05T11:41:15.712Z,3.50
2018-07-05T11:44:01.205Z,5.10
2018-07-05T11:46:46.603Z,5.37
2018-07-05T11:49:32.109Z,5.17
2018-07-05T11:52:17.710Z,4.43
2018-07-05T11:55:03.146Z,3.87
2018-07-05T11:57:48.513Z,3.57
2018-07-05T12:00:33.982Z,3.23
2018-07-05T12:03:19.294Z,3.10
2018-07-05T12:06:04.716Z,3.20
2018-07-05T12:08:50.179Z,4.40
2018-07-05T12:11:29.788Z,3.47
2018-07-05T12:14:15.226Z,3.40
2018-07-05T12:17:00.638Z,3.90
2018-07-05T12:19:46.160Z,3.57
2018-07-05T12:22:25.816Z,3.80
2018-07-05T12:25:05.535Z,5.27
2018-07-05T12:27:51.163Z,3.50
2018-07-05T12:30:36.664Z,4.03
2018-07-05T12:33:22.113Z,3.70
2018-07-05T12:36:01.693Z,3.20
2018-07-05T12:38:47.345Z,2.87
2018-07-05T12:41:32.968Z,3.00
2018-07-05T12:44:18.193Z,2.80
2018-07-05T12:47:03.640Z,3.37
2018-07-05T12:49:49.034Z,3.47
2018-07-05T12:52:28.775Z,3.20
2018-07-05T12:55:14.541Z,3.00
2018-07-05T12:58:00.012Z,3.17
2018-07-05T13:00:45.392Z,2.90
2018-07-05T13:03:30.798Z,3.80
2018-07-05T13:06:10.287Z,2.80
2018-07-05T13:08:55.697Z,3.10
2018-07-05T13:11:41.508Z,2.90
2018-07-05T13:14:27.255Z,2.60
2018-07-05T13:17:13.040Z,2.60
2018-07-05T13:19:58.577Z,2.43
2018-07-05T13:22:37.987Z,2.50
2018-07-05T13:25:23.385Z,2.80
2018-07-05T13:28:02.863Z,2.70
2018-07-05T13:30:48.360Z,2.70
2018-07-05T13:33:34.175Z,2.80
2018-07-05T13:36:19.537Z,2.80
2018-07-05T13:39:05.421Z,2.70
2018-07-05T13:41:53.715Z,2.80
2018-07-05T13:44:41.259Z,3.27
2018-07-05T13:47:24.605Z,2.87
2018-07-05T13:50:13.705Z,2.80
2018-07-05T13:52:59.648Z,3.00
2018-07-05T13:55:45.496Z,2.57
2018-07-05T13:58:31.592Z,3.10
2018-07-05T14:01:17.752Z,2.80
2018-07-05T14:03:58.066Z,2.50
2018-07-05T14:06:39.858Z,3.30
2018-07-05T14:09:19.652Z,3.00
2018-07-05T14:12:04.987Z,2.73
2018-07-05T14:14:44.694Z,3.10
2018-07-05T14:17:30.172Z,3.30
2018-07-05T14:20:20.103Z,2.97
2018-07-05T14:23:06.380Z,3.00
2018-07-05T14:25:52.151Z,2.90
2018-07-05T14:28:39.878Z,3.10
2018-07-05T14:31:25.683Z,3.00
2018-07-05T14:34:11.247Z,3.00
2018-07-05T14:36:59.185Z,3.20
2018-07-05T14:39:44.733Z,3.17
2018-07-05T14:42:30.646Z,2.90
2018-07-05T14:45:16.234Z,3.70
2018-07-05T14:48:01.623Z,4.87
2018-07-05T14:50:46.976Z,3.90
2018-07-05T14:53:32.331Z,3.30
2018-07-05T14:56:17.649Z,4.00
2018-07-05T14:59:03.015Z,3.73
2018-07-05T15:01:48.707Z,3.77
2018-07-05T15:04:34.243Z,3.73
2018-07-05T15:07:13.946Z,3.73
2018-07-05T15:10:03.917Z,3.13
2018-07-05T15:12:50.411Z,3.20
2018-07-05T15:15:36.389Z,3.70
2018-07-05T15:18:21.845Z,3.20
2018-07-05T15:21:07.710Z,3.80
2018-07-05T15:23:53.537Z,3.63
2018-07-05T15:26:41.662Z,3.53
2018-07-05T15:29:28.115Z,4.00
2018-07-05T15:32:09.771Z,3.10
2018-07-05T15:34:58.246Z,3.33
2018-07-05T15:37:46.638Z,3.03
2018-07-05T15:40:34.121Z,4.00
2018-07-05T15:43:25.494Z,5.23
2018-07-05T15:46:07.456Z,4.50
2018-07-05T15:48:53.895Z,3.50
2018-07-05T15:51:33.345Z,4.20
2018-07-05T15:54:18.698Z,3.30
2018-07-05T15:57:04.073Z,3.27
2018-07-05T15:59:49.604Z,3.80
2018-07-05T16:02:35.201Z,2.97
2018-07-05T16:05:20.661Z,2.70
2018-07-05T16:08:06.139Z,3.03
2018-07-05T16:10:51.555Z,2.97
2018-07-05T16:13:37.773Z,2.70
2018-07-05T16:16:23.064Z,2.80
2018-07-05T16:19:02.753Z,3.10
2018-07-05T16:21:48.538Z,2.77
2018-07-05T16:24:34.085Z,2.63
2018-07-05T16:27:20.457Z,2.40
2018-07-05T16:30:06.121Z,2.60
2018-07-05T16:32:51.626Z,2.80
2018-07-05T16:35:37.374Z,3.00
2018-07-05T16:38:23.312Z,2.50
2018-07-05T16:41:08.990Z,2.83
2018-07-05T16:43:54.419Z,2.83
2018-07-05T16:46:39.866Z,2.93
2018-07-05T16:49:25.302Z,2.93
2018-07-05T16:52:10.784Z,2.90
2018-07-05T16:54:56.359Z,2.70
2018-07-05T16:57:51.561Z,2.60
2018-07-05T17:00:37.081Z,2.27
2018-07-05T17:03:24.140Z,2.27
2018-07-05T17:06:10.072Z,2.40
2018-07-05T17:08:55.488Z,2.23
2018-07-05T17:11:40.823Z,2.00
2018-07-05T17:14:26.356Z,2.10
2018-07-05T17:17:11.813Z,2.23
2018-07-05T17:19:57.806Z,2.13
2018-07-05T17:22:43.164Z,2.10
2018-07-05T17:25:28.765Z,1.70
2018-07-05T17:28:14.771Z,2.20
2018-07-05T17:30:54.712Z,1.97
2018-07-05T17:33:40.006Z,2.20
2018-07-05T17:36:19.584Z,2.30
2018-07-05T17:39:05.784Z,1.80
2018-07-05T17:41:51.323Z,2.30
2018-07-05T17:44:31.147Z,2.20
2018-07-05T17:47:16.756Z,2.20
2018-07-05T17:50:02.582Z,2.00
2018-07-05T17:52:48.144Z,2.47
2018-07-05T17:55:33.448Z,2.20
2018-07-05T17:58:18.989Z,2.30
2018-07-05T18:00:58.968Z,1.97
2018-07-05T18:03:44.542Z,2.03
2018-07-05T18:06:30.076Z,2.17
2018-07-05T18:09:15.598Z,2.10
2018-07-05T18:12:00.958Z,2.13
2018-07-05T18:14:46.326Z,1.97
2018-07-05T18:17:31.793Z,2.50
2018-07-05T18:20:17.125Z,2.90
2018-07-05T18:23:02.533Z,2.50
2018-07-05T18:25:48.117Z,2.63
2018-07-05T18:28:33.551Z,2.37
2018-07-05T18:31:18.927Z,2.00
2018-07-05T18:33:58.563Z,2.17
2018-07-05T18:36:44.372Z,2.27
2018-07-05T18:39:29.869Z,2.27
2018-07-05T18:42:15.397Z,2.20
2018-07-05T18:45:00.985Z,3.57
2018-07-05T18:47:46.426Z,3.40
2018-07-05T18:50:32.648Z,2.73
2018-07-05T18:53:18.412Z,2.20
2018-07-05T18:56:03.912Z,1.87
2018-07-05T18:58:49.387Z,1.87
2018-07-05T19:01:35.212Z,2.20
2018-07-05T19:04:20.958Z,1.60
2018-07-05T19:07:06.369Z,1.83
2018-07-05T19:09:51.898Z,1.47
2018-07-05T19:12:37.448Z,1.40
2018-07-05T19:15:22.892Z,1.50
2018-07-05T19:18:08.546Z,2.10
2018-07-05T19:20:53.897Z,1.50
2018-07-05T19:23:39.599Z,1.63
2018-07-05T19:26:25.073Z,1.60
2018-07-05T19:29:10.780Z,1.33
2018-07-05T19:31:56.268Z,1.37
2018-07-05T19:34:41.798Z,1.20
2018-07-05T19:37:27.407Z,1.40
2018-07-05T19:40:12.745Z,1.43
2018-07-05T19:42:58.220Z,1.40
2018-07-05T19:45:43.692Z,1.40
2018-07-05T19:48:29.372Z,1.37
2018-07-05T19:51:14.863Z,1.53
2018-07-05T19:54:00.398Z,1.53
2018-07-05T19:56:46.109Z,1.60
2018-07-05T19:59:31.806Z,1.60
2018-07-05T20:02:17.400Z,1.50
2018-07-05T20:05:02.900Z,1.50
2018-07-05T20:07:48.532Z,1.70
2018-07-05T20:10:33.960Z,1.60
2018-07-05T20:13:19.433Z,1.80
2018-07-05T20:16:04.879Z,1.30
2018-07-05T20:18:50.174Z,1.60
2018-07-05T20:21:35.778Z,1.60
2018-07-05T20:24:15.300Z,1.67
2018-07-05T20:27:00.823Z,1.60
2018-07-05T20:29:46.135Z,1.47
2018-07-05T20:32:31.453Z,1.77
2018-07-05T20:35:10.927Z,1.63
2018-07-05T20:37:56.493Z,1.70
2018-07-05T20:40:41.968Z,1.50
2018-07-05T20:43:27.537Z,1.40
2018-07-05T20:46:07.209Z,1.40
2018-07-05T20:48:52.855Z,1.70
2018-07-05T20:51:38.517Z,1.50
2018-07-05T20:54:23.892Z,1.40
2018-07-05T20:57:09.207Z,1.70
2018-07-05T20:59:48.908Z,1.57
2018-07-05T21:02:34.465Z,1.60
2018-07-05T21:05:19.886Z,1.60
2018-07-05T21:08:05.420Z,1.63
2018-07-05T21:10:50.816Z,1.70
2018-07-05T21:13:36.257Z,1.70
2018-07-05T21:16:15.849Z,1.40
2018-07-05T21:19:01.452Z,1.57
2018-07-05T21:21:46.950Z,2.03
2018-07-05T21:24:32.488Z,1.57
2018-07-05T21:27:17.917Z,1.70
2018-07-05T21:30:03.493Z,1.70
2018-07-05T21:32:43.299Z,2.13
2018-07-05T21:35:28.857Z,2.13
2018-07-05T21:38:14.428Z,2.10
2018-07-05T21:41:00.764Z,1.63
2018-07-05T21:43:46.325Z,2.27
2018-07-05T21:46:31.647Z,2.30
2018-07-05T21:49:20.697Z,1.93
2018-07-05T21:52:06.196Z,1.87
2018-07-05T21:54:51.523Z,1.90
2018-07-05T21:57:37.063Z,2.00
2018-07-05T22:00:22.537Z,2.10
2018-07-05T22:03:08.336Z,2.10
2018-07-05T22:05:47.984Z,2.00
2018-07-05T22:08:33.446Z,2.00
2018-07-05T22:11:19.120Z,2.13
2018-07-05T22:14:04.495Z,2.30
2018-07-05T22:16:49.756Z,2.40
2018-07-05T22:19:41.057Z,2.20
2018-07-05T22:22:32.331Z,2.30
2018-07-05T22:25:23.397Z,2.00
2018-07-05T22:28:14.554Z,2.40
2018-07-05T22:31:05.856Z,2.80
2018-07-05T22:33:51.232Z,2.20
2018-07-05T22:36:36.522Z,2.70
2018-07-05T22:39:16.160Z,2.30
2018-07-05T22:42:01.684Z,2.30
2018-07-05T22:44:47.089Z,2.30
2018-07-05T22:47:32.468Z,2.10
2018-07-05T22:50:17.821Z,2.67
2018-07-05T22:53:03.160Z,2.10
2018-07-05T22:55:48.621Z,2.73
2018-07-05T22:58:34.309Z,2.50
2018-07-05T23:01:19.595Z,2.50
2018-07-05T23:04:04.940Z,2.40
2018-07-05T23:06:50.418Z,2.63
2018-07-05T23:09:36.101Z,2.60
2018-07-05T23:12:21.806Z,2.90
2018-07-05T23:15:07.487Z,3.07
2018-07-05T23:17:52.878Z,2.80
2018-07-05T23:20:38.216Z,2.73
2018-07-05T23:23:18.116Z,3.27
2018-07-05T23:26:03.590Z,2.70
2018-07-05T23:28:49.166Z,3.23
2018-07-05T23:31:34.655Z,2.80
2018-07-05T23:34:20.110Z,2.90
2018-07-05T23:37:05.640Z,3.00
2018-07-05T23:39:51.388Z,3.30
2018-07-05T23:42:36.831Z,3.40
2018-07-05T23:45:22.205Z,3.50
2018-07-05T23:48:07.601Z,3.20
2018-07-05T23:50:53.219Z,3.00
2018-07-05T23:53:38.751Z,2.90
2018-07-05T23:56:24.301Z,3.20
2018-07-05T23:59:03.960Z,3.10
